Pagrindinis puslapis
METAR-TAF:

METAR-TAF

Oro uostai :

Chinandega, Nikaragva

platuma: 12-38N, ilguma: 087-08W, Aukštis: 53 m

Dabartinis oras

Ataskaita buvo paskelbta 3 valandos ir 9 minutes, ne 23:00 UTC
Vėjas 4 kt iš Pietų
Temperatūra 33°C
Drėgmė 59%
Slėgis 1006 hPa
Matomumas 10 km arba daugiau
Mažai debesys ne aukštis 2400 ft, Liūtiniai kamuoliniai debesys.

METAR: MNCH 192300Z 18004KT 9999 FEW024CB 33/24 Q1006 CB/N/NE

Laikas: 20:09 (02:09 UTC)


TAF: trūkstamas

Orai ataskaitas ir orų prognozės (METAR, TAF).

turimą stotys yra geltonos ir raudonos taškus žemėlapyje.

Perkelti pele per norėdami pamatyti stoties vardą.

Tada spustelėkite, norėdami matyti oro stebėjimo ir prognozės.

Norėdami pakeisti žemėlapį: spustelėkite ant žalios mygtukų su juodo kryžiaus žemyn,; žalią mygtuką su brūkšneliu, jei norite nutolinti; arba žalių rodyklių gretimoms žemėlapius.


METAR-TAF: